Terminal Aerodrome Forecast
Issued by NWS

Current Version | Previous Version | Graphics & Text | Print | Product List | Glossary On
Versions: 1 2 3 4 5 6 7 8 9 10 11 12 13 14 15 16
688
FTUS41 KPBZ 251256 AAA
TAFHLG
TAF AMD
KHLG 251256Z 2513/2612 21008KT P6SM SCT015 BKN100
      TEMPO 2513/2514 BKN008
     FM251500 22007KT P6SM SCT035
     FM260100 25005KT P6SM VCTS BKN035CB
     FM260500 22006KT P6SM VCSH BKN025=

USA.gov is the U.S. government's official web portal to all federal, state and local government web resources and services.